sensor_id;sensor_type;location;lat;lon;timestamp;temperature;humidity
52387;DHT22;38317;53.084;6.960;2023-06-14T00:01:24;16.70;99.50
52387;DHT22;38317;53.084;6.960;2023-06-14T00:03:51;16.60;99.70
52387;DHT22;38317;53.084;6.960;2023-06-14T00:06:17;16.60;99.70
52387;DHT22;38317;53.084;6.960;2023-06-14T00:08:43;16.50;99.90
52387;DHT22;38317;53.084;6.960;2023-06-14T00:11:09;16.40;99.90
52387;DHT22;38317;53.084;6.960;2023-06-14T00:13:35;16.40;99.90
52387;DHT22;38317;53.084;6.960;2023-06-14T00:16:00;16.40;99.90
52387;DHT22;38317;53.084;6.960;2023-06-14T00:18:26;16.40;99.90
52387;DHT22;38317;53.084;6.960;2023-06-14T00:20:55;16.30;99.90
52387;DHT22;38317;53.084;6.960;2023-06-14T00:23:21;16.30;99.90
52387;DHT22;38317;53.084;6.960;2023-06-14T00:25:47;16.30;99.90
52387;DHT22;38317;53.084;6.960;2023-06-14T00:28:13;16.30;99.90
52387;DHT22;38317;53.084;6.960;2023-06-14T00:30:39;16.30;99.90
52387;DHT22;38317;53.084;6.960;2023-06-14T00:33:05;16.30;99.90
52387;DHT22;38317;53.084;6.960;2023-06-14T00:35:31;16.20;99.90
52387;DHT22;38317;53.084;6.960;2023-06-14T00:37:57;16.20;99.90
52387;DHT22;38317;53.084;6.960;2023-06-14T00:40:22;16.20;99.90
52387;DHT22;38317;53.084;6.960;2023-06-14T00:42:49;16.20;99.90
52387;DHT22;38317;53.084;6.960;2023-06-14T00:45:15;16.20;99.90
52387;DHT22;38317;53.084;6.960;2023-06-14T00:47:42;16.10;99.90
52387;DHT22;38317;53.084;6.960;2023-06-14T00:50:09;16.10;99.90
52387;DHT22;38317;53.084;6.960;2023-06-14T00:52:35;16.10;99.90
52387;DHT22;38317;53.084;6.960;2023-06-14T00:55:02;16.10;99.90
52387;DHT22;38317;53.084;6.960;2023-06-14T00:57:28;16.00;99.90
52387;DHT22;38317;53.084;6.960;2023-06-14T00:59:55;16.00;99.90
52387;DHT22;38317;53.084;6.960;2023-06-14T01:02:21;16.00;99.90
52387;DHT22;38317;53.084;6.960;2023-06-14T01:04:48;15.90;99.90
52387;DHT22;38317;53.084;6.960;2023-06-14T01:15:21;15.80;99.90
52387;DHT22;38317;53.084;6.960;2023-06-14T01:17:49;15.80;99.90
52387;DHT22;38317;53.084;6.960;2023-06-14T01:20:17;15.70;99.90
52387;DHT22;38317;53.084;6.960;2023-06-14T01:22:53;15.70;99.90
52387;DHT22;38317;53.084;6.960;2023-06-14T01:25:20;15.60;99.90
52387;DHT22;38317;53.084;6.960;2023-06-14T01:27:52;15.60;99.90
52387;DHT22;38317;53.084;6.960;2023-06-14T01:30:20;15.50;99.90
52387;DHT22;38317;53.084;6.960;2023-06-14T01:32:46;15.50;99.90
52387;DHT22;38317;53.084;6.960;2023-06-14T01:35:12;15.50;99.90
52387;DHT22;38317;53.084;6.960;2023-06-14T01:37:40;15.40;99.90
52387;DHT22;38317;53.084;6.960;2023-06-14T01:40:07;15.40;99.90
52387;DHT22;38317;53.084;6.960;2023-06-14T01:42:36;15.40;99.90
52387;DHT22;38317;53.084;6.960;2023-06-14T01:45:03;15.40;99.90
52387;DHT22;38317;53.084;6.960;2023-06-14T01:47:31;15.30;99.90
52387;DHT22;38317;53.084;6.960;2023-06-14T01:49:57;15.30;99.90
52387;DHT22;38317;53.084;6.960;2023-06-14T01:52:23;15.30;99.90
52387;DHT22;38317;53.084;6.960;2023-06-14T01:54:50;15.30;99.90
52387;DHT22;38317;53.084;6.960;2023-06-14T01:57:16;15.20;99.90
52387;DHT22;38317;53.084;6.960;2023-06-14T01:59:42;15.20;99.90
52387;DHT22;38317;53.084;6.960;2023-06-14T02:02:07;15.20;99.90
52387;DHT22;38317;53.084;6.960;2023-06-14T02:04:34;15.20;99.90
52387;DHT22;38317;53.084;6.960;2023-06-14T02:07:00;15.10;99.90
52387;DHT22;38317;53.084;6.960;2023-06-14T02:09:25;15.10;99.90
52387;DHT22;38317;53.084;6.960;2023-06-14T02:11:51;15.00;99.90
52387;DHT22;38317;53.084;6.960;2023-06-14T02:14:17;15.00;99.90
52387;DHT22;38317;53.084;6.960;2023-06-14T02:16:43;15.00;99.90
52387;DHT22;38317;53.084;6.960;2023-06-14T02:19:18;14.90;99.90
52387;DHT22;38317;53.084;6.960;2023-06-14T02:21:44;14.80;99.90
52387;DHT22;38317;53.084;6.960;2023-06-14T02:24:10;14.70;99.90
52387;DHT22;38317;53.084;6.960;2023-06-14T02:26:36;14.70;99.90
52387;DHT22;38317;53.084;6.960;2023-06-14T02:29:05;14.70;99.90
52387;DHT22;38317;53.084;6.960;2023-06-14T02:31:32;14.70;99.90
52387;DHT22;38317;53.084;6.960;2023-06-14T02:33:58;14.70;99.90
52387;DHT22;38317;53.084;6.960;2023-06-14T02:36:24;14.70;99.90
52387;DHT22;38317;53.084;6.960;2023-06-14T02:38:50;14.70;99.90
52387;DHT22;38317;53.084;6.960;2023-06-14T02:41:16;14.70;99.90
52387;DHT22;38317;53.084;6.960;2023-06-14T02:43:42;14.70;99.90
52387;DHT22;38317;53.084;6.960;2023-06-14T02:46:08;14.70;99.90
52387;DHT22;38317;53.084;6.960;2023-06-14T02:48:34;14.70;99.90
52387;DHT22;38317;53.084;6.960;2023-06-14T02:50:59;14.70;99.90
52387;DHT22;38317;53.084;6.960;2023-06-14T02:53:25;14.70;99.90
52387;DHT22;38317;53.084;6.960;2023-06-14T02:55:51;14.70;99.90
52387;DHT22;38317;53.084;6.960;2023-06-14T02:58:17;14.60;99.90
52387;DHT22;38317;53.084;6.960;2023-06-14T03:00:44;14.70;99.90
52387;DHT22;38317;53.084;6.960;2023-06-14T03:03:10;14.70;99.90
52387;DHT22;38317;53.084;6.960;2023-06-14T03:05:46;14.70;99.90
52387;DHT22;38317;53.084;6.960;2023-06-14T03:08:13;14.60;99.90
52387;DHT22;38317;53.084;6.960;2023-06-14T03:10:48;14.60;99.90
52387;DHT22;38317;53.084;6.960;2023-06-14T03:13:15;14.60;99.90
52387;DHT22;38317;53.084;6.960;2023-06-14T03:15:42;14.60;99.90
52387;DHT22;38317;53.084;6.960;2023-06-14T03:18:09;14.60;99.90
52387;DHT22;38317;53.084;6.960;2023-06-14T03:20:35;14.60;99.90
52387;DHT22;38317;53.084;6.960;2023-06-14T03:23:02;14.70;99.90
52387;DHT22;38317;53.084;6.960;2023-06-14T03:25:29;14.60;99.90
52387;DHT22;38317;53.084;6.960;2023-06-14T03:27:58;14.60;99.90
52387;DHT22;38317;53.084;6.960;2023-06-14T03:30:23;14.60;99.90
52387;DHT22;38317;53.084;6.960;2023-06-14T03:32:49;14.60;99.90
52387;DHT22;38317;53.084;6.960;2023-06-14T03:35:19;14.60;99.90
52387;DHT22;38317;53.084;6.960;2023-06-14T03:37:45;14.60;99.90
52387;DHT22;38317;53.084;6.960;2023-06-14T03:40:12;14.60;99.90
52387;DHT22;38317;53.084;6.960;2023-06-14T03:42:39;14.60;99.90
52387;DHT22;38317;53.084;6.960;2023-06-14T03:45:06;14.60;99.90
52387;DHT22;38317;53.084;6.960;2023-06-14T03:47:33;14.60;99.90
52387;DHT22;38317;53.084;6.960;2023-06-14T03:49:59;14.50;99.90
52387;DHT22;38317;53.084;6.960;2023-06-14T03:52:26;14.60;99.90
52387;DHT22;38317;53.084;6.960;2023-06-14T03:54:52;14.60;99.90
52387;DHT22;38317;53.084;6.960;2023-06-14T03:57:19;14.60;99.90
52387;DHT22;38317;53.084;6.960;2023-06-14T03:59:45;14.60;99.90
52387;DHT22;38317;53.084;6.960;2023-06-14T04:02:12;14.50;99.90
52387;DHT22;38317;53.084;6.960;2023-06-14T04:04:41;14.50;99.90
52387;DHT22;38317;53.084;6.960;2023-06-14T04:07:10;14.50;99.90
52387;DHT22;38317;53.084;6.960;2023-06-14T04:09:40;14.60;99.90
52387;DHT22;38317;53.084;6.960;2023-06-14T04:12:06;14.60;99.90
52387;DHT22;38317;53.084;6.960;2023-06-14T04:14:34;14.60;99.90
52387;DHT22;38317;53.084;6.960;2023-06-14T04:17:00;14.60;99.90
52387;DHT22;38317;53.084;6.960;2023-06-14T04:19:26;14.60;99.90
52387;DHT22;38317;53.084;6.960;2023-06-14T04:21:52;14.60;99.90
52387;DHT22;38317;53.084;6.960;2023-06-14T04:24:18;14.60;99.90
52387;DHT22;38317;53.084;6.960;2023-06-14T04:26:45;14.60;99.90
52387;DHT22;38317;53.084;6.960;2023-06-14T04:29:14;14.60;99.90
52387;DHT22;38317;53.084;6.960;2023-06-14T04:31:45;14.60;99.90
52387;DHT22;38317;53.084;6.960;2023-06-14T04:34:12;14.60;99.90
52387;DHT22;38317;53.084;6.960;2023-06-14T04:36:44;14.60;99.90
52387;DHT22;38317;53.084;6.960;2023-06-14T04:39:22;14.70;99.90
52387;DHT22;38317;53.084;6.960;2023-06-14T04:41:48;14.70;99.90
52387;DHT22;38317;53.084;6.960;2023-06-14T04:44:18;14.70;99.90
52387;DHT22;38317;53.084;6.960;2023-06-14T04:46:48;14.70;99.90
52387;DHT22;38317;53.084;6.960;2023-06-14T04:49:17;14.70;99.90
52387;DHT22;38317;53.084;6.960;2023-06-14T04:51:45;14.80;99.90
52387;DHT22;38317;53.084;6.960;2023-06-14T04:54:11;14.80;99.90
52387;DHT22;38317;53.084;6.960;2023-06-14T04:56:43;14.90;99.90
52387;DHT22;38317;53.084;6.960;2023-06-14T04:59:10;14.90;99.90
52387;DHT22;38317;53.084;6.960;2023-06-14T05:01:43;15.00;99.90
52387;DHT22;38317;53.084;6.960;2023-06-14T05:04:19;15.00;99.90
52387;DHT22;38317;53.084;6.960;2023-06-14T05:06:45;15.00;99.90
52387;DHT22;38317;53.084;6.960;2023-06-14T05:09:14;15.10;99.90
52387;DHT22;38317;53.084;6.960;2023-06-14T05:11:43;15.10;99.90
52387;DHT22;38317;53.084;6.960;2023-06-14T05:14:13;15.10;99.90
52387;DHT22;38317;53.084;6.960;2023-06-14T05:16:39;15.20;99.90
52387;DHT22;38317;53.084;6.960;2023-06-14T05:19:05;15.20;99.90
52387;DHT22;38317;53.084;6.960;2023-06-14T05:21:31;15.20;99.90
52387;DHT22;38317;53.084;6.960;2023-06-14T05:24:00;15.30;99.90
52387;DHT22;38317;53.084;6.960;2023-06-14T05:26:26;15.30;99.90
52387;DHT22;38317;53.084;6.960;2023-06-14T05:28:56;15.40;99.90
52387;DHT22;38317;53.084;6.960;2023-06-14T05:31:25;15.40;99.90
52387;DHT22;38317;53.084;6.960;2023-06-14T05:33:51;15.50;99.90
52387;DHT22;38317;53.084;6.960;2023-06-14T05:36:17;15.50;99.90
52387;DHT22;38317;53.084;6.960;2023-06-14T05:38:44;15.50;99.90
52387;DHT22;38317;53.084;6.960;2023-06-14T05:41:10;15.60;99.90
52387;DHT22;38317;53.084;6.960;2023-06-14T05:43:36;15.60;99.90
52387;DHT22;38317;53.084;6.960;2023-06-14T05:46:01;15.70;99.90
52387;DHT22;38317;53.084;6.960;2023-06-14T05:48:28;15.70;99.90
52387;DHT22;38317;53.084;6.960;2023-06-14T05:50:54;15.70;99.90
52387;DHT22;38317;53.084;6.960;2023-06-14T05:53:20;15.80;99.90
52387;DHT22;38317;53.084;6.960;2023-06-14T05:55:45;15.80;99.90
52387;DHT22;38317;53.084;6.960;2023-06-14T05:58:11;15.90;99.90
52387;DHT22;38317;53.084;6.960;2023-06-14T06:00:39;15.90;99.90
52387;DHT22;38317;53.084;6.960;2023-06-14T06:03:04;15.90;99.90
52387;DHT22;38317;53.084;6.960;2023-06-14T06:05:38;16.00;99.90
52387;DHT22;38317;53.084;6.960;2023-06-14T06:08:04;16.00;99.90
52387;DHT22;38317;53.084;6.960;2023-06-14T06:10:29;16.00;99.90
52387;DHT22;38317;53.084;6.960;2023-06-14T06:12:55;16.00;99.90
52387;DHT22;38317;53.084;6.960;2023-06-14T06:15:21;16.10;99.90
52387;DHT22;38317;53.084;6.960;2023-06-14T06:17:46;16.10;99.90
52387;DHT22;38317;53.084;6.960;2023-06-14T06:20:12;16.10;99.90
52387;DHT22;38317;53.084;6.960;2023-06-14T06:22:38;16.20;99.90
52387;DHT22;38317;53.084;6.960;2023-06-14T06:25:04;16.20;99.90
52387;DHT22;38317;53.084;6.960;2023-06-14T06:27:32;16.30;99.90
52387;DHT22;38317;53.084;6.960;2023-06-14T06:29:58;16.30;99.90
52387;DHT22;38317;53.084;6.960;2023-06-14T06:32:23;16.40;99.90
52387;DHT22;38317;53.084;6.960;2023-06-14T06:34:49;16.50;99.90
52387;DHT22;38317;53.084;6.960;2023-06-14T06:37:15;16.60;99.90
52387;DHT22;38317;53.084;6.960;2023-06-14T06:39:41;16.60;99.90
52387;DHT22;38317;53.084;6.960;2023-06-14T06:42:07;16.70;99.90
52387;DHT22;38317;53.084;6.960;2023-06-14T06:44:33;16.70;99.90
52387;DHT22;38317;53.084;6.960;2023-06-14T06:46:59;16.80;99.90
52387;DHT22;38317;53.084;6.960;2023-06-14T06:49:25;16.80;99.90
52387;DHT22;38317;53.084;6.960;2023-06-14T06:52:17;16.90;99.90
52387;DHT22;38317;53.084;6.960;2023-06-14T06:54:43;17.00;99.90
52387;DHT22;38317;53.084;6.960;2023-06-14T06:57:09;17.10;99.90
52387;DHT22;38317;53.084;6.960;2023-06-14T06:59:36;17.10;99.90
52387;DHT22;38317;53.084;6.960;2023-06-14T07:02:03;17.20;99.90
52387;DHT22;38317;53.084;6.960;2023-06-14T07:04:29;17.20;99.90
52387;DHT22;38317;53.084;6.960;2023-06-14T07:06:55;17.30;99.90
52387;DHT22;38317;53.084;6.960;2023-06-14T07:09:20;17.50;99.90
52387;DHT22;38317;53.084;6.960;2023-06-14T07:11:47;17.60;99.90
52387;DHT22;38317;53.084;6.960;2023-06-14T07:14:13;17.60;99.90
52387;DHT22;38317;53.084;6.960;2023-06-14T07:16:39;17.70;99.90
52387;DHT22;38317;53.084;6.960;2023-06-14T07:19:06;17.80;99.90
52387;DHT22;38317;53.084;6.960;2023-06-14T07:21:32;17.90;99.90
52387;DHT22;38317;53.084;6.960;2023-06-14T07:23:57;18.00;99.90
52387;DHT22;38317;53.084;6.960;2023-06-14T07:26:23;18.10;99.90
52387;DHT22;38317;53.084;6.960;2023-06-14T07:28:49;18.20;99.90
52387;DHT22;38317;53.084;6.960;2023-06-14T07:31:16;18.30;99.90
52387;DHT22;38317;53.084;6.960;2023-06-14T07:33:42;18.40;99.90
52387;DHT22;38317;53.084;6.960;2023-06-14T07:36:08;18.50;99.90
52387;DHT22;38317;53.084;6.960;2023-06-14T07:38:34;18.60;99.90
52387;DHT22;38317;53.084;6.960;2023-06-14T07:41:00;18.70;99.90
52387;DHT22;38317;53.084;6.960;2023-06-14T07:43:26;18.90;99.90
52387;DHT22;38317;53.084;6.960;2023-06-14T07:45:52;19.10;99.90
52387;DHT22;38317;53.084;6.960;2023-06-14T07:48:18;19.20;99.90
52387;DHT22;38317;53.084;6.960;2023-06-14T07:50:44;19.50;99.90
52387;DHT22;38317;53.084;6.960;2023-06-14T07:53:10;19.60;99.90
52387;DHT22;38317;53.084;6.960;2023-06-14T07:55:36;19.90;99.90
52387;DHT22;38317;53.084;6.960;2023-06-14T07:58:06;20.20;99.90
52387;DHT22;38317;53.084;6.960;2023-06-14T08:00:32;20.50;99.90
52387;DHT22;38317;53.084;6.960;2023-06-14T08:02:58;20.80;99.90
52387;DHT22;38317;53.084;6.960;2023-06-14T08:05:27;21.00;99.90
52387;DHT22;38317;53.084;6.960;2023-06-14T08:07:53;21.30;99.90
52387;DHT22;38317;53.084;6.960;2023-06-14T08:10:20;21.50;99.90
52387;DHT22;38317;53.084;6.960;2023-06-14T08:12:46;21.80;99.90
52387;DHT22;38317;53.084;6.960;2023-06-14T08:15:12;22.00;99.90
52387;DHT22;38317;53.084;6.960;2023-06-14T08:17:37;22.20;99.90
52387;DHT22;38317;53.084;6.960;2023-06-14T08:20:06;22.50;99.90
52387;DHT22;38317;53.084;6.960;2023-06-14T08:22:33;22.70;99.90
52387;DHT22;38317;53.084;6.960;2023-06-14T08:25:05;22.80;99.90
52387;DHT22;38317;53.084;6.960;2023-06-14T08:27:40;23.00;99.90
52387;DHT22;38317;53.084;6.960;2023-06-14T08:30:07;23.20;99.90
52387;DHT22;38317;53.084;6.960;2023-06-14T08:32:33;23.30;99.90
52387;DHT22;38317;53.084;6.960;2023-06-14T08:34:59;23.40;99.90
52387;DHT22;38317;53.084;6.960;2023-06-14T08:37:25;23.50;99.80
52387;DHT22;38317;53.084;6.960;2023-06-14T08:39:52;23.60;99.50
52387;DHT22;38317;53.084;6.960;2023-06-14T08:42:19;23.80;99.30
52387;DHT22;38317;53.084;6.960;2023-06-14T08:44:47;23.90;98.30
52387;DHT22;38317;53.084;6.960;2023-06-14T08:47:13;24.00;98.20
52387;DHT22;38317;53.084;6.960;2023-06-14T08:49:40;24.20;97.70
52387;DHT22;38317;53.084;6.960;2023-06-14T08:52:09;24.30;97.40
52387;DHT22;38317;53.084;6.960;2023-06-14T08:54:36;24.50;97.40
52387;DHT22;38317;53.084;6.960;2023-06-14T08:57:11;24.60;96.90
52387;DHT22;38317;53.084;6.960;2023-06-14T08:59:47;24.80;96.90
52387;DHT22;38317;53.084;6.960;2023-06-14T09:02:18;24.90;96.60
52387;DHT22;38317;53.084;6.960;2023-06-14T09:04:45;25.10;96.50
52387;DHT22;38317;53.084;6.960;2023-06-14T09:07:12;25.20;95.30
52387;DHT22;38317;53.084;6.960;2023-06-14T09:09:41;25.30;95.10
52387;DHT22;38317;53.084;6.960;2023-06-14T09:12:10;25.40;94.90
52387;DHT22;38317;53.084;6.960;2023-06-14T09:14:37;25.50;94.10
52387;DHT22;38317;53.084;6.960;2023-06-14T09:17:05;25.60;94.50
52387;DHT22;38317;53.084;6.960;2023-06-14T09:19:31;25.70;94.20
52387;DHT22;38317;53.084;6.960;2023-06-14T09:21:57;25.70;94.30
52387;DHT22;38317;53.084;6.960;2023-06-14T09:24:24;25.80;93.80
52387;DHT22;38317;53.084;6.960;2023-06-14T09:26:51;25.90;93.40
52387;DHT22;38317;53.084;6.960;2023-06-14T09:29:17;25.90;93.40
52387;DHT22;38317;53.084;6.960;2023-06-14T09:31:46;26.00;93.50
52387;DHT22;38317;53.084;6.960;2023-06-14T09:34:12;26.10;93.60
52387;DHT22;38317;53.084;6.960;2023-06-14T09:36:39;26.30;93.40
52387;DHT22;38317;53.084;6.960;2023-06-14T09:39:06;26.40;93.30
52387;DHT22;38317;53.084;6.960;2023-06-14T09:41:35;26.50;92.60
52387;DHT22;38317;53.084;6.960;2023-06-14T09:44:03;26.50;92.00
52387;DHT22;38317;53.084;6.960;2023-06-14T09:46:30;26.20;91.30
52387;DHT22;38317;53.084;6.960;2023-06-14T09:48:57;26.20;91.30
52387;DHT22;38317;53.084;6.960;2023-06-14T09:51:23;26.20;91.20
52387;DHT22;38317;53.084;6.960;2023-06-14T09:53:50;26.40;91.00
52387;DHT22;38317;53.084;6.960;2023-06-14T09:56:26;26.40;90.90
52387;DHT22;38317;53.084;6.960;2023-06-14T09:58:55;26.40;90.60
52387;DHT22;38317;53.084;6.960;2023-06-14T10:01:23;26.50;90.10
52387;DHT22;38317;53.084;6.960;2023-06-14T10:04:10;26.60;90.50
52387;DHT22;38317;53.084;6.960;2023-06-14T10:06:40;26.70;89.40
52387;DHT22;38317;53.084;6.960;2023-06-14T10:09:08;26.90;90.00
52387;DHT22;38317;53.084;6.960;2023-06-14T10:11:35;27.10;89.30
52387;DHT22;38317;53.084;6.960;2023-06-14T10:14:04;27.10;89.00
52387;DHT22;38317;53.084;6.960;2023-06-14T10:16:32;27.30;88.80
52387;DHT22;38317;53.084;6.960;2023-06-14T10:24:17;27.60;87.60
52387;DHT22;38317;53.084;6.960;2023-06-14T10:26:53;27.70;86.70
52387;DHT22;38317;53.084;6.960;2023-06-14T10:29:19;27.70;83.60
52387;DHT22;38317;53.084;6.960;2023-06-14T10:31:49;27.70;84.20
52387;DHT22;38317;53.084;6.960;2023-06-14T10:34:27;27.60;83.30
52387;DHT22;38317;53.084;6.960;2023-06-14T10:37:07;27.70;82.80
52387;DHT22;38317;53.084;6.960;2023-06-14T10:39:39;27.80;83.60
52387;DHT22;38317;53.084;6.960;2023-06-14T10:42:07;27.80;82.40
52387;DHT22;38317;53.084;6.960;2023-06-14T10:47:10;27.80;81.30
52387;DHT22;38317;53.084;6.960;2023-06-14T10:49:40;27.80;81.40
52387;DHT22;38317;53.084;6.960;2023-06-14T10:52:14;27.80;80.90
52387;DHT22;38317;53.084;6.960;2023-06-14T10:57:32;27.90;79.60
52387;DHT22;38317;53.084;6.960;2023-06-14T10:59:59;27.90;77.70
52387;DHT22;38317;53.084;6.960;2023-06-14T11:05:29;27.80;79.30
52387;DHT22;38317;53.084;6.960;2023-06-14T11:10:49;27.60;80.10
52387;DHT22;38317;53.084;6.960;2023-06-14T11:13:18;27.80;79.50
52387;DHT22;38317;53.084;6.960;2023-06-14T11:15:48;27.90;80.00
52387;DHT22;38317;53.084;6.960;2023-06-14T11:18:15;27.90;79.40
52387;DHT22;38317;53.084;6.960;2023-06-14T11:20:42;28.00;79.50
52387;DHT22;38317;53.084;6.960;2023-06-14T11:23:08;28.10;79.60
52387;DHT22;38317;53.084;6.960;2023-06-14T11:25:33;28.10;79.40
52387;DHT22;38317;53.084;6.960;2023-06-14T11:27:59;27.90;79.60
52387;DHT22;38317;53.084;6.960;2023-06-14T11:30:25;27.90;80.00
52387;DHT22;38317;53.084;6.960;2023-06-14T11:32:53;27.80;78.40
52387;DHT22;38317;53.084;6.960;2023-06-14T11:35:21;27.60;79.40
52387;DHT22;38317;53.084;6.960;2023-06-14T11:37:55;27.60;78.50
52387;DHT22;38317;53.084;6.960;2023-06-14T11:40:24;27.40;78.30
52387;DHT22;38317;53.084;6.960;2023-06-14T11:42:58;27.20;77.50
52387;DHT22;38317;53.084;6.960;2023-06-14T11:45:25;27.20;78.70
52387;DHT22;38317;53.084;6.960;2023-06-14T11:47:51;27.30;78.60
52387;DHT22;38317;53.084;6.960;2023-06-14T11:50:16;27.40;78.10
52387;DHT22;38317;53.084;6.960;2023-06-14T11:52:43;27.50;78.60
52387;DHT22;38317;53.084;6.960;2023-06-14T11:55:09;27.60;79.50
52387;DHT22;38317;53.084;6.960;2023-06-14T11:57:35;27.80;78.90
52387;DHT22;38317;53.084;6.960;2023-06-14T12:00:06;27.80;77.60
52387;DHT22;38317;53.084;6.960;2023-06-14T12:02:38;27.70;78.00
52387;DHT22;38317;53.084;6.960;2023-06-14T12:05:06;27.80;78.20
52387;DHT22;38317;53.084;6.960;2023-06-14T12:07:36;27.70;78.40
52387;DHT22;38317;53.084;6.960;2023-06-14T12:10:03;27.80;78.10
52387;DHT22;38317;53.084;6.960;2023-06-14T12:12:36;27.70;77.80
52387;DHT22;38317;53.084;6.960;2023-06-14T12:15:06;27.70;78.00
52387;DHT22;38317;53.084;6.960;2023-06-14T12:17:37;27.80;77.50
52387;DHT22;38317;53.084;6.960;2023-06-14T12:25:29;28.30;77.80
52387;DHT22;38317;53.084;6.960;2023-06-14T12:28:03;28.30;77.80
52387;DHT22;38317;53.084;6.960;2023-06-14T12:30:29;28.20;77.40
52387;DHT22;38317;53.084;6.960;2023-06-14T12:32:55;27.80;77.60
52387;DHT22;38317;53.084;6.960;2023-06-14T12:35:21;27.70;77.80
52387;DHT22;38317;53.084;6.960;2023-06-14T12:37:46;27.80;77.70
52387;DHT22;38317;53.084;6.960;2023-06-14T12:40:15;28.00;77.70
52387;DHT22;38317;53.084;6.960;2023-06-14T12:42:41;28.10;78.30
52387;DHT22;38317;53.084;6.960;2023-06-14T12:45:10;28.10;78.00
52387;DHT22;38317;53.084;6.960;2023-06-14T12:47:36;28.00;77.00
52387;DHT22;38317;53.084;6.960;2023-06-14T12:50:02;27.80;77.10
52387;DHT22;38317;53.084;6.960;2023-06-14T12:52:27;27.80;77.10
52387;DHT22;38317;53.084;6.960;2023-06-14T12:54:53;27.90;77.60
52387;DHT22;38317;53.084;6.960;2023-06-14T12:57:19;28.00;76.50
52387;DHT22;38317;53.084;6.960;2023-06-14T12:59:50;27.90;75.50
52387;DHT22;38317;53.084;6.960;2023-06-14T13:02:18;27.70;75.50
52387;DHT22;38317;53.084;6.960;2023-06-14T13:04:53;27.60;76.20
52387;DHT22;38317;53.084;6.960;2023-06-14T13:07:30;27.70;76.50
52387;DHT22;38317;53.084;6.960;2023-06-14T13:09:55;27.80;76.10
52387;DHT22;38317;53.084;6.960;2023-06-14T13:12:21;28.00;76.20
52387;DHT22;38317;53.084;6.960;2023-06-14T13:14:52;27.90;74.80
52387;DHT22;38317;53.084;6.960;2023-06-14T13:17:20;27.70;76.20
52387;DHT22;38317;53.084;6.960;2023-06-14T13:19:49;27.40;76.70
52387;DHT22;38317;53.084;6.960;2023-06-14T13:22:15;27.60;76.50
52387;DHT22;38317;53.084;6.960;2023-06-14T13:24:41;27.60;76.40
52387;DHT22;38317;53.084;6.960;2023-06-14T13:27:06;27.70;76.50
52387;DHT22;38317;53.084;6.960;2023-06-14T13:29:32;27.90;76.30
52387;DHT22;38317;53.084;6.960;2023-06-14T13:32:01;28.10;76.60
52387;DHT22;38317;53.084;6.960;2023-06-14T13:34:27;28.00;75.50
52387;DHT22;38317;53.084;6.960;2023-06-14T13:36:53;27.70;75.80
52387;DHT22;38317;53.084;6.960;2023-06-14T13:39:22;27.60;75.70
52387;DHT22;38317;53.084;6.960;2023-06-14T13:41:47;27.30;76.50
52387;DHT22;38317;53.084;6.960;2023-06-14T13:44:13;27.20;76.70
52387;DHT22;38317;53.084;6.960;2023-06-14T13:46:41;27.40;77.10
52387;DHT22;38317;53.084;6.960;2023-06-14T13:49:08;27.40;77.20
52387;DHT22;38317;53.084;6.960;2023-06-14T13:51:34;27.30;76.40
52387;DHT22;38317;53.084;6.960;2023-06-14T13:54:00;26.90;76.50
52387;DHT22;38317;53.084;6.960;2023-06-14T13:56:26;26.80;76.60
52387;DHT22;38317;53.084;6.960;2023-06-14T13:58:52;26.50;76.20
52387;DHT22;38317;53.084;6.960;2023-06-14T14:01:18;26.40;76.20
52387;DHT22;38317;53.084;6.960;2023-06-14T14:03:46;26.40;76.10
52387;DHT22;38317;53.084;6.960;2023-06-14T14:06:13;26.40;76.20
52387;DHT22;38317;53.084;6.960;2023-06-14T14:08:39;26.70;76.70
52387;DHT22;38317;53.084;6.960;2023-06-14T14:11:05;27.10;77.00
52387;DHT22;38317;53.084;6.960;2023-06-14T14:13:31;27.30;75.50
52387;DHT22;38317;53.084;6.960;2023-06-14T14:16:00;27.40;75.20
52387;DHT22;38317;53.084;6.960;2023-06-14T14:18:26;27.40;76.20
52387;DHT22;38317;53.084;6.960;2023-06-14T14:20:51;27.20;75.80
52387;DHT22;38317;53.084;6.960;2023-06-14T14:23:17;27.00;76.70
52387;DHT22;38317;53.084;6.960;2023-06-14T14:25:43;27.00;77.30
52387;DHT22;38317;53.084;6.960;2023-06-14T14:28:09;26.70;77.00
52387;DHT22;38317;53.084;6.960;2023-06-14T14:30:35;26.60;77.50
52387;DHT22;38317;53.084;6.960;2023-06-14T14:33:03;26.60;76.40
52387;DHT22;38317;53.084;6.960;2023-06-14T14:35:29;26.60;76.80
52387;DHT22;38317;53.084;6.960;2023-06-14T14:37:56;26.80;77.50
52387;DHT22;38317;53.084;6.960;2023-06-14T14:40:22;27.00;77.00
52387;DHT22;38317;53.084;6.960;2023-06-14T14:42:47;27.10;76.50
52387;DHT22;38317;53.084;6.960;2023-06-14T14:45:13;27.10;76.50
52387;DHT22;38317;53.084;6.960;2023-06-14T14:47:39;27.20;76.70
52387;DHT22;38317;53.084;6.960;2023-06-14T14:50:05;27.30;76.30
52387;DHT22;38317;53.084;6.960;2023-06-14T14:52:34;27.30;76.30
52387;DHT22;38317;53.084;6.960;2023-06-14T14:55:00;27.30;75.40
52387;DHT22;38317;53.084;6.960;2023-06-14T14:57:26;27.20;75.30
52387;DHT22;38317;53.084;6.960;2023-06-14T14:59:52;27.30;75.40
52387;DHT22;38317;53.084;6.960;2023-06-14T15:02:18;27.20;75.40
52387;DHT22;38317;53.084;6.960;2023-06-14T15:04:45;27.30;75.80
52387;DHT22;38317;53.084;6.960;2023-06-14T15:07:11;27.20;76.00
52387;DHT22;38317;53.084;6.960;2023-06-14T15:09:38;27.10;76.40
52387;DHT22;38317;53.084;6.960;2023-06-14T15:12:04;27.00;76.70
52387;DHT22;38317;53.084;6.960;2023-06-14T15:14:29;26.80;76.20
52387;DHT22;38317;53.084;6.960;2023-06-14T15:16:55;26.60;76.20
52387;DHT22;38317;53.084;6.960;2023-06-14T15:19:23;26.50;76.20
52387;DHT22;38317;53.084;6.960;2023-06-14T15:21:49;26.30;76.10
52387;DHT22;38317;53.084;6.960;2023-06-14T15:24:14;26.10;76.00
52387;DHT22;38317;53.084;6.960;2023-06-14T15:26:40;26.00;76.30
52387;DHT22;38317;53.084;6.960;2023-06-14T15:29:06;26.10;76.20
52387;DHT22;38317;53.084;6.960;2023-06-14T15:31:32;26.10;76.10
52387;DHT22;38317;53.084;6.960;2023-06-14T15:33:57;26.20;76.00
52387;DHT22;38317;53.084;6.960;2023-06-14T15:36:24;26.40;77.00
52387;DHT22;38317;53.084;6.960;2023-06-14T15:38:50;26.40;76.40
52387;DHT22;38317;53.084;6.960;2023-06-14T15:41:16;26.40;75.80
52387;DHT22;38317;53.084;6.960;2023-06-14T15:43:41;26.30;75.90
52387;DHT22;38317;53.084;6.960;2023-06-14T15:46:07;26.20;76.40
52387;DHT22;38317;53.084;6.960;2023-06-14T15:48:33;26.00;76.80
52387;DHT22;38317;53.084;6.960;2023-06-14T15:50:58;25.90;76.80
52387;DHT22;38317;53.084;6.960;2023-06-14T15:53:24;25.80;77.30
52387;DHT22;38317;53.084;6.960;2023-06-14T15:55:50;25.70;77.10
52387;DHT22;38317;53.084;6.960;2023-06-14T15:58:16;25.70;77.30
52387;DHT22;38317;53.084;6.960;2023-06-14T16:00:42;25.80;76.70